sensor_id;sensor_type;location;lat;lon;timestamp;pressure;altitude;pressure_sealevel;temperature;humidity
13719;BME280;6931;51.100;17.068;2022-07-03T00:01:17;100759.78;;;19.60;64.85
13719;BME280;6931;51.100;17.068;2022-07-03T00:03:44;100755.44;;;19.72;64.36
13719;BME280;6931;51.100;17.068;2022-07-03T00:06:11;100749.09;;;19.68;64.34
13719;BME280;6931;51.100;17.068;2022-07-03T00:08:38;100765.34;;;18.87;67.27
13719;BME280;6931;51.100;17.068;2022-07-03T00:11:05;100761.44;;;18.49;68.81
13719;BME280;6931;51.100;17.068;2022-07-03T00:13:32;100753.09;;;18.93;67.42
13719;BME280;6931;51.100;17.068;2022-07-03T00:15:58;100745.81;;;19.08;66.48
13719;BME280;6931;51.100;17.068;2022-07-03T00:18:25;100752.09;;;19.32;65.72
13719;BME280;6931;51.100;17.068;2022-07-03T00:20:59;100758.44;;;19.36;65.71
13719;BME280;6931;51.100;17.068;2022-07-03T00:23:29;100759.34;;;19.01;67.20
13719;BME280;6931;51.100;17.068;2022-07-03T00:25:58;100769.50;;;19.14;66.70
13719;BME280;6931;51.100;17.068;2022-07-03T00:28:28;100772.38;;;18.27;69.29
13719;BME280;6931;51.100;17.068;2022-07-03T00:30:55;100771.94;;;18.48;68.77
13719;BME280;6931;51.100;17.068;2022-07-03T00:33:23;100764.28;;;18.81;67.54
13719;BME280;6931;51.100;17.068;2022-07-03T00:35:54;100771.00;;;19.03;66.67
13719;BME280;6931;51.100;17.068;2022-07-03T00:38:22;100770.03;;;19.09;66.50
13719;BME280;6931;51.100;17.068;2022-07-03T00:40:49;100769.66;;;19.07;66.59
13719;BME280;6931;51.100;17.068;2022-07-03T00:43:16;100758.28;;;19.11;66.32
13719;BME280;6931;51.100;17.068;2022-07-03T00:45:49;100763.22;;;19.07;66.45
13719;BME280;6931;51.100;17.068;2022-07-03T00:48:19;100769.22;;;19.09;66.33
13719;BME280;6931;51.100;17.068;2022-07-03T00:50:50;100761.91;;;18.95;67.05
13719;BME280;6931;51.100;17.068;2022-07-03T00:53:23;100763.94;;;19.11;66.37
13719;BME280;6931;51.100;17.068;2022-07-03T00:55:53;100747.78;;;18.95;66.66
13719;BME280;6931;51.100;17.068;2022-07-03T00:58:22;100745.38;;;19.10;66.33
13719;BME280;6931;51.100;17.068;2022-07-03T01:00:52;100748.13;;;19.13;66.41
13719;BME280;6931;51.100;17.068;2022-07-03T01:03:21;100736.22;;;19.06;66.49
13719;BME280;6931;51.100;17.068;2022-07-03T01:05:53;100744.09;;;18.98;66.97
13719;BME280;6931;51.100;17.068;2022-07-03T01:16:31;100730.41;;;18.49;69.16
13719;BME280;6931;51.100;17.068;2022-07-03T01:19:10;100738.34;;;18.54;68.99
13719;BME280;6931;51.100;17.068;2022-07-03T01:30:09;100727.78;;;18.58;68.52
13719;BME280;6931;51.100;17.068;2022-07-03T01:32:53;100719.34;;;18.38;69.63
13719;BME280;6931;51.100;17.068;2022-07-03T01:35:27;100711.13;;;18.27;70.35
13719;BME280;6931;51.100;17.068;2022-07-03T01:37:54;100712.16;;;18.53;69.43
13719;BME280;6931;51.100;17.068;2022-07-03T01:40:23;100712.00;;;18.24;70.10
13719;BME280;6931;51.100;17.068;2022-07-03T01:42:51;100714.97;;;17.82;71.38
13719;BME280;6931;51.100;17.068;2022-07-03T01:45:19;100719.28;;;18.06;70.78
13719;BME280;6931;51.100;17.068;2022-07-03T01:47:46;100714.31;;;18.29;69.60
13719;BME280;6931;51.100;17.068;2022-07-03T01:50:15;100710.88;;;18.38;69.63
13719;BME280;6931;51.100;17.068;2022-07-03T01:52:43;100712.84;;;18.41;69.27
13719;BME280;6931;51.100;17.068;2022-07-03T01:55:14;100713.91;;;18.47;69.07
13719;BME280;6931;51.100;17.068;2022-07-03T01:57:44;100712.94;;;18.54;68.71
13719;BME280;6931;51.100;17.068;2022-07-03T02:00:11;100705.19;;;18.22;69.80
13719;BME280;6931;51.100;17.068;2022-07-03T02:03:25;100707.03;;;18.48;68.89
13719;BME280;6931;51.100;17.068;2022-07-03T02:05:45;100704.28;;;18.45;69.00
13719;BME280;6931;51.100;17.068;2022-07-03T02:11:09;100695.16;;;18.21;69.78
13719;BME280;6931;51.100;17.068;2022-07-03T02:13:55;100701.50;;;18.09;70.13
13719;BME280;6931;51.100;17.068;2022-07-03T02:16:25;100694.59;;;17.74;72.04
13719;BME280;6931;51.100;17.068;2022-07-03T02:18:58;100693.59;;;17.65;72.51
13719;BME280;6931;51.100;17.068;2022-07-03T02:21:29;100694.41;;;17.42;73.13
13719;BME280;6931;51.100;17.068;2022-07-03T02:26:32;100700.47;;;17.64;72.34
13719;BME280;6931;51.100;17.068;2022-07-03T02:29:02;100691.66;;;17.97;70.53
13719;BME280;6931;51.100;17.068;2022-07-03T02:31:37;100705.28;;;17.83;70.68
13719;BME280;6931;51.100;17.068;2022-07-03T02:34:06;100700.06;;;17.23;72.97
13719;BME280;6931;51.100;17.068;2022-07-03T02:36:34;100705.41;;;16.94;74.50
13719;BME280;6931;51.100;17.068;2022-07-03T02:39:02;100710.81;;;17.28;73.53
13719;BME280;6931;51.100;17.068;2022-07-03T02:41:46;100715.59;;;17.31;73.38
13719;BME280;6931;51.100;17.068;2022-07-03T02:44:27;100711.66;;;17.48;71.81
13719;BME280;6931;51.100;17.068;2022-07-03T02:49:42;100710.84;;;17.47;72.13
13719;BME280;6931;51.100;17.068;2022-07-03T02:52:22;100714.19;;;17.19;72.96
13719;BME280;6931;51.100;17.068;2022-07-03T02:54:52;100717.16;;;17.32;72.43
13719;BME280;6931;51.100;17.068;2022-07-03T02:57:19;100704.00;;;17.68;71.17
13719;BME280;6931;51.100;17.068;2022-07-03T03:02:54;100707.38;;;17.40;72.35
13719;BME280;6931;51.100;17.068;2022-07-03T03:05:35;100705.16;;;17.70;70.96
13719;BME280;6931;51.100;17.068;2022-07-03T03:08:12;100701.56;;;17.50;71.47
13719;BME280;6931;51.100;17.068;2022-07-03T03:10:43;100701.72;;;17.40;72.24
13719;BME280;6931;51.100;17.068;2022-07-03T03:13:12;100689.56;;;17.66;70.61
13719;BME280;6931;51.100;17.068;2022-07-03T03:15:44;100700.25;;;17.74;71.50
13719;BME280;6931;51.100;17.068;2022-07-03T03:18:21;100697.38;;;17.15;73.02
13719;BME280;6931;51.100;17.068;2022-07-03T03:20:50;100707.41;;;16.93;74.84
13719;BME280;6931;51.100;17.068;2022-07-03T03:23:33;100714.16;;;16.99;73.73
13719;BME280;6931;51.100;17.068;2022-07-03T03:26:00;100719.00;;;16.76;74.83
13719;BME280;6931;51.100;17.068;2022-07-03T03:28:27;100708.97;;;16.98;73.77
13719;BME280;6931;51.100;17.068;2022-07-03T03:30:54;100711.28;;;16.57;75.39
13719;BME280;6931;51.100;17.068;2022-07-03T03:33:21;100711.78;;;16.75;74.99
13719;BME280;6931;51.100;17.068;2022-07-03T03:35:48;100711.53;;;17.32;73.00
13719;BME280;6931;51.100;17.068;2022-07-03T03:38:15;100707.63;;;17.49;72.10
13719;BME280;6931;51.100;17.068;2022-07-03T03:40:43;100706.66;;;17.12;73.67
13719;BME280;6931;51.100;17.068;2022-07-03T03:43:11;100708.59;;;16.96;75.12
13719;BME280;6931;51.100;17.068;2022-07-03T03:45:37;100701.72;;;17.40;73.32
13719;BME280;6931;51.100;17.068;2022-07-03T03:48:04;100664.34;;;17.16;73.82
13719;BME280;6931;51.100;17.068;2022-07-03T03:50:31;100699.28;;;17.42;73.90
13719;BME280;6931;51.100;17.068;2022-07-03T03:52:59;100696.63;;;17.54;73.88
13719;BME280;6931;51.100;17.068;2022-07-03T03:55:26;100694.69;;;17.71;73.51
13719;BME280;6931;51.100;17.068;2022-07-03T03:57:53;100696.69;;;17.70;73.52
13719;BME280;6931;51.100;17.068;2022-07-03T04:00:19;100690.47;;;17.59;74.40
13719;BME280;6931;51.100;17.068;2022-07-03T04:02:46;100688.97;;;17.74;74.38
13719;BME280;6931;51.100;17.068;2022-07-03T04:05:12;100674.13;;;17.90;73.65
13719;BME280;6931;51.100;17.068;2022-07-03T04:07:39;100683.38;;;17.90;73.70
13719;BME280;6931;51.100;17.068;2022-07-03T04:10:06;100676.66;;;17.84;74.04
13719;BME280;6931;51.100;17.068;2022-07-03T04:12:32;100678.38;;;17.98;74.18
13719;BME280;6931;51.100;17.068;2022-07-03T04:14:59;100682.78;;;17.99;74.09
13719;BME280;6931;51.100;17.068;2022-07-03T04:17:26;100684.72;;;18.02;73.90
13719;BME280;6931;51.100;17.068;2022-07-03T04:19:53;100684.44;;;17.96;74.32
13719;BME280;6931;51.100;17.068;2022-07-03T04:22:19;100687.09;;;18.03;74.37
13719;BME280;6931;51.100;17.068;2022-07-03T04:24:46;100690.47;;;17.79;75.30
13719;BME280;6931;51.100;17.068;2022-07-03T04:27:13;100690.16;;;17.93;75.09
13719;BME280;6931;51.100;17.068;2022-07-03T04:29:39;100695.84;;;18.09;74.44
13719;BME280;6931;51.100;17.068;2022-07-03T04:32:06;100692.50;;;18.14;74.30
13719;BME280;6931;51.100;17.068;2022-07-03T04:34:33;100684.31;;;18.19;74.04
13719;BME280;6931;51.100;17.068;2022-07-03T04:37:00;100689.97;;;18.19;74.08
13719;BME280;6931;51.100;17.068;2022-07-03T04:39:26;100697.03;;;18.27;73.93
13719;BME280;6931;51.100;17.068;2022-07-03T04:41:53;100693.16;;;18.21;74.20
13719;BME280;6931;51.100;17.068;2022-07-03T04:44:19;100695.84;;;18.25;74.20
13719;BME280;6931;51.100;17.068;2022-07-03T04:46:46;100669.59;;;18.12;74.13
13719;BME280;6931;51.100;17.068;2022-07-03T04:49:13;100698.78;;;18.21;74.16
13719;BME280;6931;51.100;17.068;2022-07-03T04:51:39;100700.81;;;18.21;74.33
13719;BME280;6931;51.100;17.068;2022-07-03T04:54:06;100718.41;;;18.25;74.48
13719;BME280;6931;51.100;17.068;2022-07-03T04:56:32;100699.47;;;18.45;74.20
13719;BME280;6931;51.100;17.068;2022-07-03T04:58:59;100698.25;;;18.26;74.91
13719;BME280;6931;51.100;17.068;2022-07-03T05:01:26;100695.84;;;18.25;75.05
13719;BME280;6931;51.100;17.068;2022-07-03T05:03:52;100699.03;;;18.27;75.22
13719;BME280;6931;51.100;17.068;2022-07-03T05:06:19;100692.31;;;18.41;75.03
13719;BME280;6931;51.100;17.068;2022-07-03T05:08:46;100692.47;;;18.34;74.78
13719;BME280;6931;51.100;17.068;2022-07-03T05:11:13;100689.28;;;17.96;76.45
13719;BME280;6931;51.100;17.068;2022-07-03T05:13:39;100690.09;;;18.48;75.10
13719;BME280;6931;51.100;17.068;2022-07-03T05:16:06;100694.25;;;18.60;74.75
13719;BME280;6931;51.100;17.068;2022-07-03T05:18:33;100693.28;;;18.50;74.57
13719;BME280;6931;51.100;17.068;2022-07-03T05:20:59;100682.88;;;18.63;74.63
13719;BME280;6931;51.100;17.068;2022-07-03T05:23:26;100687.28;;;18.48;74.81
13719;BME280;6931;51.100;17.068;2022-07-03T05:25:53;100689.81;;;18.43;75.67
13719;BME280;6931;51.100;17.068;2022-07-03T05:28:21;100680.03;;;18.63;75.05
13719;BME280;6931;51.100;17.068;2022-07-03T05:30:48;100679.44;;;18.72;74.91
13719;BME280;6931;51.100;17.068;2022-07-03T05:33:17;100674.03;;;18.77;74.81
13719;BME280;6931;51.100;17.068;2022-07-03T05:35:43;100678.66;;;18.71;74.92
13719;BME280;6931;51.100;17.068;2022-07-03T05:38:10;100664.72;;;18.80;74.85
13719;BME280;6931;51.100;17.068;2022-07-03T05:40:37;100682.31;;;18.84;75.11
13719;BME280;6931;51.100;17.068;2022-07-03T05:43:03;100683.03;;;18.88;74.70
13719;BME280;6931;51.100;17.068;2022-07-03T05:45:30;100682.72;;;19.15;74.30
13719;BME280;6931;51.100;17.068;2022-07-03T05:47:56;100684.25;;;19.03;74.80
13719;BME280;6931;51.100;17.068;2022-07-03T05:50:23;100689.22;;;18.99;74.62
13719;BME280;6931;51.100;17.068;2022-07-03T05:52:50;100684.19;;;18.91;75.41
13719;BME280;6931;51.100;17.068;2022-07-03T05:55:16;100686.78;;;19.30;74.11
13719;BME280;6931;51.100;17.068;2022-07-03T05:57:43;100693.34;;;19.39;74.06
13719;BME280;6931;51.100;17.068;2022-07-03T06:00:10;100687.50;;;19.47;74.47
13719;BME280;6931;51.100;17.068;2022-07-03T06:02:37;100690.06;;;19.41;74.41
13719;BME280;6931;51.100;17.068;2022-07-03T06:05:04;100696.06;;;19.43;74.42
13719;BME280;6931;51.100;17.068;2022-07-03T06:07:31;100693.09;;;19.63;74.08
13719;BME280;6931;51.100;17.068;2022-07-03T06:09:57;100688.50;;;19.40;74.38
13719;BME280;6931;51.100;17.068;2022-07-03T06:12:24;100680.81;;;19.41;74.32
13719;BME280;6931;51.100;17.068;2022-07-03T06:14:50;100693.81;;;19.79;73.85
13719;BME280;6931;51.100;17.068;2022-07-03T06:17:17;100689.66;;;19.84;73.25
13719;BME280;6931;51.100;17.068;2022-07-03T06:19:44;100690.31;;;19.75;73.36
13719;BME280;6931;51.100;17.068;2022-07-03T06:22:11;100691.47;;;19.90;74.14
13719;BME280;6931;51.100;17.068;2022-07-03T06:24:37;100681.31;;;19.93;73.18
13719;BME280;6931;51.100;17.068;2022-07-03T06:27:04;100683.31;;;19.92;73.05
13719;BME280;6931;51.100;17.068;2022-07-03T06:29:31;100683.44;;;20.14;72.51
13719;BME280;6931;51.100;17.068;2022-07-03T06:31:57;100681.06;;;20.12;72.62
13719;BME280;6931;51.100;17.068;2022-07-03T06:34:24;100673.09;;;20.36;72.13
13719;BME280;6931;51.100;17.068;2022-07-03T06:36:51;100664.78;;;20.41;72.12
13719;BME280;6931;51.100;17.068;2022-07-03T06:39:17;100669.34;;;20.39;72.05
13719;BME280;6931;51.100;17.068;2022-07-03T06:41:44;100666.84;;;20.41;71.82
13719;BME280;6931;51.100;17.068;2022-07-03T06:44:10;100680.66;;;20.52;71.04
13719;BME280;6931;51.100;17.068;2022-07-03T06:46:37;100676.34;;;20.60;70.65
13719;BME280;6931;51.100;17.068;2022-07-03T06:49:04;100680.53;;;20.55;70.31
13719;BME280;6931;51.100;17.068;2022-07-03T06:51:30;100667.72;;;20.50;69.70
13719;BME280;6931;51.100;17.068;2022-07-03T06:53:57;100679.72;;;20.67;70.37
13719;BME280;6931;51.100;17.068;2022-07-03T06:56:23;100681.03;;;20.88;69.72
13719;BME280;6931;51.100;17.068;2022-07-03T06:58:56;100670.25;;;20.95;69.00
13719;BME280;6931;51.100;17.068;2022-07-03T07:01:22;100671.28;;;20.89;68.47
13719;BME280;6931;51.100;17.068;2022-07-03T07:03:49;100663.63;;;20.77;68.87
13719;BME280;6931;51.100;17.068;2022-07-03T07:06:16;100666.44;;;20.77;68.88
13719;BME280;6931;51.100;17.068;2022-07-03T07:08:42;100659.63;;;20.99;69.47
13719;BME280;6931;51.100;17.068;2022-07-03T07:11:09;100654.91;;;21.18;68.38
13719;BME280;6931;51.100;17.068;2022-07-03T07:13:36;100656.31;;;21.35;68.42
13719;BME280;6931;51.100;17.068;2022-07-03T07:16:03;100649.78;;;21.25;66.15
13719;BME280;6931;51.100;17.068;2022-07-03T07:18:30;100648.66;;;21.44;67.32
13719;BME280;6931;51.100;17.068;2022-07-03T07:20:57;100638.94;;;21.54;66.94
13719;BME280;6931;51.100;17.068;2022-07-03T07:23:23;100638.13;;;21.45;65.94
13719;BME280;6931;51.100;17.068;2022-07-03T07:25:50;100642.13;;;21.56;64.77
13719;BME280;6931;51.100;17.068;2022-07-03T07:28:17;100635.78;;;21.74;64.54
13719;BME280;6931;51.100;17.068;2022-07-03T07:30:43;100640.06;;;21.79;65.27
13719;BME280;6931;51.100;17.068;2022-07-03T07:33:10;100638.22;;;21.85;63.44
13719;BME280;6931;51.100;17.068;2022-07-03T07:35:37;100645.19;;;21.93;63.61
13719;BME280;6931;51.100;17.068;2022-07-03T07:38:03;100613.34;;;21.89;63.39
13719;BME280;6931;51.100;17.068;2022-07-03T07:40:34;100630.50;;;21.63;63.16
13719;BME280;6931;51.100;17.068;2022-07-03T07:43:01;100626.03;;;22.06;63.33
13719;BME280;6931;51.100;17.068;2022-07-03T07:45:27;100614.28;;;22.25;60.88
13719;BME280;6931;51.100;17.068;2022-07-03T07:47:54;100621.44;;;22.48;59.91
13719;BME280;6931;51.100;17.068;2022-07-03T07:50:21;100625.91;;;22.58;58.86
13719;BME280;6931;51.100;17.068;2022-07-03T07:52:47;100612.16;;;22.56;58.84
13719;BME280;6931;51.100;17.068;2022-07-03T07:55:14;100622.13;;;22.61;57.14
13719;BME280;6931;51.100;17.068;2022-07-03T07:57:41;100612.66;;;22.55;57.90
13719;BME280;6931;51.100;17.068;2022-07-03T08:00:13;100632.88;;;22.84;57.63
13719;BME280;6931;51.100;17.068;2022-07-03T08:02:41;100628.00;;;22.85;57.17
13719;BME280;6931;51.100;17.068;2022-07-03T08:05:29;100626.91;;;22.91;56.89
13719;BME280;6931;51.100;17.068;2022-07-03T08:08:16;100621.84;;;22.68;55.38
13719;BME280;6931;51.100;17.068;2022-07-03T08:13:12;100630.16;;;22.14;56.93
13719;BME280;6931;51.100;17.068;2022-07-03T08:15:41;100623.16;;;22.36;57.59
13719;BME280;6931;51.100;17.068;2022-07-03T08:18:08;100628.16;;;22.63;58.08
13719;BME280;6931;51.100;17.068;2022-07-03T08:20:36;100624.91;;;22.43;57.64
13719;BME280;6931;51.100;17.068;2022-07-03T08:23:03;100627.19;;;22.17;57.08
13719;BME280;6931;51.100;17.068;2022-07-03T08:25:31;100619.28;;;22.12;56.78
13719;BME280;6931;51.100;17.068;2022-07-03T08:27:58;100620.41;;;22.24;57.46
13719;BME280;6931;51.100;17.068;2022-07-03T08:30:26;100599.44;;;22.21;56.71
13719;BME280;6931;51.100;17.068;2022-07-03T08:32:54;100618.59;;;22.39;55.93
13719;BME280;6931;51.100;17.068;2022-07-03T08:35:22;100611.25;;;22.78;55.47
13719;BME280;6931;51.100;17.068;2022-07-03T08:37:48;100588.81;;;22.52;55.15
13719;BME280;6931;51.100;17.068;2022-07-03T08:40:16;100616.81;;;22.99;55.21
13719;BME280;6931;51.100;17.068;2022-07-03T08:42:46;100616.97;;;23.23;54.96
13719;BME280;6931;51.100;17.068;2022-07-03T08:45:18;100615.38;;;23.04;54.07
13719;BME280;6931;51.100;17.068;2022-07-03T08:47:47;100610.44;;;22.59;52.77
13719;BME280;6931;51.100;17.068;2022-07-03T08:50:18;100615.66;;;22.60;53.24
13719;BME280;6931;51.100;17.068;2022-07-03T08:52:47;100609.81;;;22.64;54.03
13719;BME280;6931;51.100;17.068;2022-07-03T08:55:15;100608.63;;;23.01;53.72
13719;BME280;6931;51.100;17.068;2022-07-03T08:57:43;100611.28;;;23.05;53.75
13719;BME280;6931;51.100;17.068;2022-07-03T09:00:16;100610.16;;;22.93;52.57
13719;BME280;6931;51.100;17.068;2022-07-03T09:02:45;100597.53;;;23.03;53.42
13719;BME280;6931;51.100;17.068;2022-07-03T09:05:15;100602.44;;;23.12;53.25
13719;BME280;6931;51.100;17.068;2022-07-03T09:07:43;100601.19;;;23.13;51.64
13719;BME280;6931;51.100;17.068;2022-07-03T09:10:12;100584.44;;;23.15;50.70
13719;BME280;6931;51.100;17.068;2022-07-03T09:12:39;100584.75;;;22.90;51.23
13719;BME280;6931;51.100;17.068;2022-07-03T09:15:07;100568.50;;;22.81;50.61
13719;BME280;6931;51.100;17.068;2022-07-03T09:17:34;100580.31;;;23.25;51.23
13719;BME280;6931;51.100;17.068;2022-07-03T09:20:03;100579.06;;;23.35;51.32
13719;BME280;6931;51.100;17.068;2022-07-03T09:22:32;100574.00;;;23.21;50.38
13719;BME280;6931;51.100;17.068;2022-07-03T09:27:33;100579.47;;;23.60;50.89
13719;BME280;6931;51.100;17.068;2022-07-03T09:30:03;100571.97;;;23.03;50.21
13719;BME280;6931;51.100;17.068;2022-07-03T09:32:31;100571.50;;;22.96;49.54
13719;BME280;6931;51.100;17.068;2022-07-03T09:37:48;100564.34;;;23.27;49.46
13719;BME280;6931;51.100;17.068;2022-07-03T09:40:14;100568.88;;;23.70;48.02
13719;BME280;6931;51.100;17.068;2022-07-03T09:51:22;100556.56;;;23.97;48.59
13719;BME280;6931;51.100;17.068;2022-07-03T09:56:24;100549.56;;;24.39;47.48
13719;BME280;6931;51.100;17.068;2022-07-03T10:01:36;100545.25;;;23.88;46.88
13719;BME280;6931;51.100;17.068;2022-07-03T10:06:58;100555.63;;;24.56;47.46
13719;BME280;6931;51.100;17.068;2022-07-03T10:09:29;100546.41;;;24.61;45.63
13719;BME280;6931;51.100;17.068;2022-07-03T10:11:58;100547.69;;;24.83;46.88
13719;BME280;6931;51.100;17.068;2022-07-03T10:14:27;100535.34;;;25.16;47.44
13719;BME280;6931;51.100;17.068;2022-07-03T10:16:54;100535.16;;;25.19;44.13
13719;BME280;6931;51.100;17.068;2022-07-03T10:19:29;100541.28;;;25.41;45.25
13719;BME280;6931;51.100;17.068;2022-07-03T10:22:09;100532.75;;;25.41;45.16
13719;BME280;6931;51.100;17.068;2022-07-03T10:24:40;100518.44;;;25.27;44.89
13719;BME280;6931;51.100;17.068;2022-07-03T10:27:08;100523.19;;;25.59;45.16
13719;BME280;6931;51.100;17.068;2022-07-03T10:29:36;100522.69;;;25.60;45.12
13719;BME280;6931;51.100;17.068;2022-07-03T10:32:05;100516.78;;;25.49;44.55
13719;BME280;6931;51.100;17.068;2022-07-03T10:34:33;100520.91;;;25.63;44.21
13719;BME280;6931;51.100;17.068;2022-07-03T10:37:03;100522.19;;;25.62;43.33
13719;BME280;6931;51.100;17.068;2022-07-03T10:39:44;100508.41;;;25.60;43.85
13719;BME280;6931;51.100;17.068;2022-07-03T10:42:21;100511.78;;;25.44;43.34
13719;BME280;6931;51.100;17.068;2022-07-03T10:45:11;100497.31;;;25.62;45.13
13719;BME280;6931;51.100;17.068;2022-07-03T10:47:48;100505.31;;;25.78;44.49
13719;BME280;6931;51.100;17.068;2022-07-03T10:50:22;100502.47;;;25.78;44.38
13719;BME280;6931;51.100;17.068;2022-07-03T10:52:50;100495.03;;;26.01;43.57
13719;BME280;6931;51.100;17.068;2022-07-03T10:55:17;100492.66;;;25.99;43.50
13719;BME280;6931;51.100;17.068;2022-07-03T10:58:07;100485.16;;;26.17;41.82
13719;BME280;6931;51.100;17.068;2022-07-03T11:01:00;100478.41;;;25.99;42.45
13719;BME280;6931;51.100;17.068;2022-07-03T11:04:02;100485.50;;;26.04;42.22
13719;BME280;6931;51.100;17.068;2022-07-03T11:09:19;100486.50;;;26.41;44.06
13719;BME280;6931;51.100;17.068;2022-07-03T11:11:46;100480.84;;;26.07;41.21
13719;BME280;6931;51.100;17.068;2022-07-03T11:14:24;100469.72;;;26.09;43.02
13719;BME280;6931;51.100;17.068;2022-07-03T11:17:20;100468.38;;;26.24;44.02
13719;BME280;6931;51.100;17.068;2022-07-03T11:19:48;100468.22;;;26.53;42.05
13719;BME280;6931;51.100;17.068;2022-07-03T11:23:39;100461.88;;;26.24;41.98
13719;BME280;6931;51.100;17.068;2022-07-03T11:25:46;100449.75;;;26.49;43.37
13719;BME280;6931;51.100;17.068;2022-07-03T11:39:02;100452.13;;;26.30;42.19
13719;BME280;6931;51.100;17.068;2022-07-03T11:43:59;100454.50;;;26.57;39.89
13719;BME280;6931;51.100;17.068;2022-07-03T11:46:32;100441.75;;;26.53;40.43
13719;BME280;6931;51.100;17.068;2022-07-03T11:49:06;100451.81;;;26.68;40.49
13719;BME280;6931;51.100;17.068;2022-07-03T11:51:34;100444.88;;;26.75;41.60
13719;BME280;6931;51.100;17.068;2022-07-03T11:54:01;100442.16;;;26.91;41.02
13719;BME280;6931;51.100;17.068;2022-07-03T11:56:28;100430.28;;;26.73;41.12
13719;BME280;6931;51.100;17.068;2022-07-03T11:58:57;100428.72;;;26.52;41.04
13719;BME280;6931;51.100;17.068;2022-07-03T12:06:49;100423.44;;;26.90;40.49
13719;BME280;6931;51.100;17.068;2022-07-03T12:09:33;100368.78;;;26.57;40.98
13719;BME280;6931;51.100;17.068;2022-07-03T12:12:04;100418.50;;;26.91;40.38
13719;BME280;6931;51.100;17.068;2022-07-03T12:17:03;100412.41;;;26.78;39.19
13719;BME280;6931;51.100;17.068;2022-07-03T12:19:30;100411.84;;;26.99;39.57
13719;BME280;6931;51.100;17.068;2022-07-03T12:21:56;100411.84;;;26.74;40.57
13719;BME280;6931;51.100;17.068;2022-07-03T12:24:23;100409.13;;;26.65;39.55
13719;BME280;6931;51.100;17.068;2022-07-03T12:26:50;100405.47;;;27.16;39.75
13719;BME280;6931;51.100;17.068;2022-07-03T12:29:17;100404.94;;;26.86;39.17
13719;BME280;6931;51.100;17.068;2022-07-03T12:31:47;100400.88;;;27.24;40.15
13719;BME280;6931;51.100;17.068;2022-07-03T12:34:16;100392.00;;;27.53;40.08
13719;BME280;6931;51.100;17.068;2022-07-03T12:36:59;100403.31;;;27.73;39.60
13719;BME280;6931;51.100;17.068;2022-07-03T12:39:40;100400.31;;;27.51;39.04
13719;BME280;6931;51.100;17.068;2022-07-03T12:44:41;100405.19;;;27.39;38.23
13719;BME280;6931;51.100;17.068;2022-07-03T12:47:08;100401.84;;;27.46;37.75
13719;BME280;6931;51.100;17.068;2022-07-03T12:49:35;100402.03;;;27.79;38.82
13719;BME280;6931;51.100;17.068;2022-07-03T12:52:02;100416.78;;;27.61;38.70
13719;BME280;6931;51.100;17.068;2022-07-03T12:54:34;100407.91;;;26.97;38.53
13719;BME280;6931;51.100;17.068;2022-07-03T12:57:08;100401.84;;;27.15;39.18
13719;BME280;6931;51.100;17.068;2022-07-03T13:00:04;100391.75;;;27.56;39.70
13719;BME280;6931;51.100;17.068;2022-07-03T13:02:36;100387.44;;;27.72;39.10
13719;BME280;6931;51.100;17.068;2022-07-03T13:05:21;100399.38;;;28.12;39.91
13719;BME280;6931;51.100;17.068;2022-07-03T13:07:53;100391.59;;;28.18;37.00
13719;BME280;6931;51.100;17.068;2022-07-03T13:10:22;100385.38;;;28.26;36.24
13719;BME280;6931;51.100;17.068;2022-07-03T13:12:54;100367.84;;;28.07;36.48
13719;BME280;6931;51.100;17.068;2022-07-03T13:15:25;100379.31;;;28.12;36.88
13719;BME280;6931;51.100;17.068;2022-07-03T13:20:31;100362.41;;;28.14;37.60
13719;BME280;6931;51.100;17.068;2022-07-03T13:23:03;100357.88;;;27.91;38.29
13719;BME280;6931;51.100;17.068;2022-07-03T13:25:33;100360.59;;;28.23;38.42
13719;BME280;6931;51.100;17.068;2022-07-03T13:28:17;100361.38;;;28.12;37.83
13719;BME280;6931;51.100;17.068;2022-07-03T13:30:45;100354.34;;;27.65;37.44
13719;BME280;6931;51.100;17.068;2022-07-03T13:33:11;100348.00;;;27.50;37.69
13719;BME280;6931;51.100;17.068;2022-07-03T13:35:40;100352.78;;;27.64;37.19
13719;BME280;6931;51.100;17.068;2022-07-03T13:38:06;100358.72;;;28.03;38.57
13719;BME280;6931;51.100;17.068;2022-07-03T13:40:33;100353.25;;;28.10;37.39
13719;BME280;6931;51.100;17.068;2022-07-03T13:43:01;100353.16;;;27.88;39.19
13719;BME280;6931;51.100;17.068;2022-07-03T13:45:28;100356.50;;;27.81;37.95
13719;BME280;6931;51.100;17.068;2022-07-03T13:47:55;100342.47;;;27.83;37.80
13719;BME280;6931;51.100;17.068;2022-07-03T13:50:22;100343.91;;;28.10;37.52
13719;BME280;6931;51.100;17.068;2022-07-03T13:52:48;100347.47;;;28.64;39.26
13719;BME280;6931;51.100;17.068;2022-07-03T13:55:16;100352.94;;;28.78;36.29
13719;BME280;6931;51.100;17.068;2022-07-03T13:57:43;100325.97;;;28.21;36.04
13719;BME280;6931;51.100;17.068;2022-07-03T14:00:10;100337.28;;;28.63;37.63
13719;BME280;6931;51.100;17.068;2022-07-03T14:02:37;100329.22;;;28.78;37.53
13719;BME280;6931;51.100;17.068;2022-07-03T14:05:06;100325.50;;;28.50;36.68
13719;BME280;6931;51.100;17.068;2022-07-03T14:07:32;100334.41;;;28.63;36.77
13719;BME280;6931;51.100;17.068;2022-07-03T14:09:59;100325.38;;;28.05;37.32
13719;BME280;6931;51.100;17.068;2022-07-03T14:12:26;100326.25;;;27.69;37.70
13719;BME280;6931;51.100;17.068;2022-07-03T14:14:52;100322.84;;;28.18;37.71
13719;BME280;6931;51.100;17.068;2022-07-03T14:17:19;100311.69;;;28.48;36.76
13719;BME280;6931;51.100;17.068;2022-07-03T14:19:46;100299.47;;;28.64;37.14
13719;BME280;6931;51.100;17.068;2022-07-03T14:22:12;100311.50;;;28.74;35.55
13719;BME280;6931;51.100;17.068;2022-07-03T14:24:39;100311.22;;;28.99;37.07